Time;durP1;ratioP1;P1;durP2;ratioP2;P2;SDS_P1;SDS_P2;PMS_P1;PMS_P2;Temp;Humidity;BMP_temperature;BMP_pressure;BME280_temperature;BME280_humidity;BME280_pressure;Samples;Min_cycle;Max_cycle;Signal;HPM_P1;HPM_P2
2023/10/20 00:00:45;;;;;;;8.60;5.35;;;15.90;84.30;;;;;;5037091;28;20382;-64
2023/10/20 00:03:13;;;;;;;8.68;5.85;;;15.90;84.40;;;;;;5036707;28;20029;-64
2023/10/20 00:05:41;;;;;;;8.77;5.55;;;15.90;84.40;;;;;;5038506;28;20430;-64
2023/10/20 00:08:09;;;;;;;9.15;5.72;;;15.90;84.40;;;;;;5038438;28;20025;-64
2023/10/20 00:10:36;;;;;;;8.70;5.72;;;15.90;84.40;;;;;;5038484;28;20018;-64
2023/10/20 00:13:04;;;;;;;8.85;6.10;;;15.90;84.40;;;;;;5037194;28;20021;-64
2023/10/20 00:15:34;;;;;;;10.23;5.72;;;15.90;84.40;;;;;;5037479;28;20036;-64
2023/10/20 00:18:02;;;;;;;9.35;5.40;;;15.90;84.30;;;;;;5037689;28;20048;-64
2023/10/20 00:20:31;;;;;;;9.27;5.80;;;15.90;84.20;;;;;;5037776;28;20547;-64
2023/10/20 00:23:00;;;;;;;9.60;5.47;;;15.90;84.30;;;;;;5038125;28;20018;-64
2023/10/20 00:25:28;;;;;;;9.68;6.20;;;15.90;84.20;;;;;;5036644;28;20022;-64
2023/10/20 00:28:00;;;;;;;13.65;6.70;;;15.90;84.40;;;;;;5037599;28;20060;-64
2023/10/20 00:30:28;;;;;;;11.40;6.43;;;15.90;84.50;;;;;;5038092;28;20021;-64
2023/10/20 00:32:57;;;;;;;10.35;6.93;;;15.90;84.40;;;;;;5037526;28;20144;-64
2023/10/20 00:35:25;;;;;;;10.00;6.65;;;15.90;84.40;;;;;;5053627;28;20045;-64
2023/10/20 00:37:51;;;;;;;12.70;6.57;;;15.90;84.40;;;;;;5057853;28;20464;-64
2023/10/20 00:40:20;;;;;;;7.45;5.47;;;15.90;84.40;;;;;;5039631;28;20028;-64
2023/10/20 00:42:46;;;;;;;8.18;5.40;;;15.90;84.30;;;;;;5057481;28;20017;-64
2023/10/20 00:45:14;;;;;;;8.88;5.43;;;15.90;84.20;;;;;;5039505;28;20029;-64
2023/10/20 00:47:40;;;;;;;9.57;5.95;;;15.90;84.30;;;;;;5057186;28;20025;-64
2023/10/20 00:50:11;;;;;;;8.90;6.05;;;15.90;84.30;;;;;;5039735;28;20028;-64
2023/10/20 00:53:03;;;;;;;9.40;5.90;;;15.90;84.20;;;;;;5057025;28;20040;-64
2023/10/20 00:55:30;;;;;;;8.52;5.70;;;15.90;84.10;;;;;;5057295;28;20028;-64
2023/10/20 00:57:57;;;;;;;7.40;5.03;;;15.90;84.40;;;;;;5039853;28;20334;-64
2023/10/20 01:00:26;;;;;;;7.55;4.85;;;15.90;84.20;;;;;;5055970;28;20116;-64
2023/10/20 01:02:53;;;;;;;8.95;5.50;;;15.90;84.10;;;;;;5057304;28;20096;-64
2023/10/20 01:05:32;;;;;;;8.57;5.13;;;16.00;84.30;;;;;;5056759;28;20014;-64
2023/10/20 01:08:01;;;;;;;9.25;5.40;;;15.90;84.20;;;;;;5057325;28;20031;-64
2023/10/20 01:10:28;;;;;;;8.80;5.25;;;15.90;84.10;;;;;;5057159;28;20025;-64
2023/10/20 01:12:56;;;;;;;7.72;4.95;;;15.90;84.30;;;;;;5057115;28;20017;-64
2023/10/20 01:15:22;;;;;;;6.38;4.65;;;15.90;84.30;;;;;;5056861;28;20025;-64
2023/10/20 01:17:49;;;;;;;6.68;4.70;;;15.90;84.30;;;;;;5056574;28;20045;-64
2023/10/20 01:20:17;;;;;;;7.60;4.78;;;15.90;84.20;;;;;;5056488;28;20505;-64
2023/10/20 01:22:45;;;;;;;11.15;4.55;;;16.00;84.30;;;;;;5038822;28;20437;-64
2023/10/20 01:25:22;;;;;;;8.55;5.32;;;15.90;84.20;;;;;;5056555;28;20025;-64
2023/10/20 01:27:50;;;;;;;8.05;4.63;;;15.90;84.40;;;;;;5056904;28;20021;-64
2023/10/20 01:30:16;;;;;;;7.80;5.28;;;15.90;84.40;;;;;;5056868;28;20025;-64
2023/10/20 01:32:45;;;;;;;9.15;5.18;;;15.90;84.30;;;;;;5056788;28;20051;-64
2023/10/20 01:35:11;;;;;;;8.82;5.55;;;15.90;84.40;;;;;;5055757;28;20469;-64
2023/10/20 01:37:37;;;;;;;9.25;6.00;;;15.90;84.50;;;;;;5056451;28;20024;-64
2023/10/20 01:40:09;;;;;;;8.32;6.15;;;15.90;84.50;;;;;;5056697;28;20083;-64
2023/10/20 01:42:37;;;;;;;8.05;5.32;;;15.90;84.60;;;;;;5056600;28;20021;-64
2023/10/20 01:45:06;;;;;;;9.07;5.57;;;15.90;84.50;;;;;;5055945;28;20107;-64
2023/10/20 01:47:34;;;;;;;10.77;5.72;;;15.90;84.50;;;;;;5056551;28;20025;-64
2023/10/20 01:50:01;;;;;;;8.50;5.75;;;15.90;84.40;;;;;;5055770;28;20430;-64
2023/10/20 01:52:26;;;;;;;9.02;5.68;;;15.90;84.50;;;;;;5055938;28;20043;-64
2023/10/20 01:54:53;;;;;;;11.35;6.28;;;15.90;84.70;;;;;;5055816;28;20025;-64
2023/10/20 01:57:21;;;;;;;10.82;5.85;;;15.90;84.70;;;;;;5055837;28;20103;-64
2023/10/20 01:59:49;;;;;;;10.82;6.60;;;15.90;84.70;;;;;;5055729;28;20051;-64
2023/10/20 02:02:15;;;;;;;10.52;6.55;;;16.00;84.50;;;;;;5055761;28;20028;-64
2023/10/20 02:04:41;;;;;;;9.35;5.90;;;15.90;84.80;;;;;;5055597;28;20025;-64
2023/10/20 02:07:07;;;;;;;7.57;4.82;;;15.90;84.80;;;;;;5038165;28;20021;-64
2023/10/20 02:09:35;;;;;;;9.00;5.35;;;16.00;84.90;;;;;;5055606;28;20025;-64
2023/10/20 02:12:04;;;;;;;9.93;5.30;;;15.90;84.80;;;;;;5055532;28;20012;-64
2023/10/20 02:14:33;;;;;;;9.30;5.10;;;16.00;84.60;;;;;;5055490;28;20047;-64
2023/10/20 02:16:59;;;;;;;6.72;4.07;;;15.90;84.60;;;;;;5055548;28;20017;-64
2023/10/20 02:19:27;;;;;;;8.98;4.70;;;15.90;84.60;;;;;;5055500;28;20029;-64
2023/10/20 02:21:53;;;;;;;7.57;4.40;;;15.90;84.80;;;;;;5055437;28;20099;-64
2023/10/20 02:24:19;;;;;;;8.20;4.65;;;16.00;84.90;;;;;;5037845;28;20036;-64
2023/10/20 02:26:45;;;;;;;8.30;4.63;;;15.90;84.80;;;;;;5037347;28;20358;-64
2023/10/20 02:29:12;;;;;;;8.38;5.15;;;16.00;84.60;;;;;;5055597;28;20104;-64
2023/10/20 02:31:38;;;;;;;9.60;5.10;;;16.00;84.60;;;;;;5055846;28;20013;-64
2023/10/20 02:34:04;;;;;;;8.43;5.43;;;16.00;84.60;;;;;;5034095;28;20140;-64
2023/10/20 02:36:34;;;;;;;7.90;5.22;;;16.00;84.60;;;;;;5035938;28;20108;-64
2023/10/20 02:39:00;;;;;;;9.50;5.15;;;16.00;84.90;;;;;;5035838;28;20033;-64
2023/10/20 02:41:28;;;;;;;10.30;6.03;;;16.00;84.80;;;;;;5035297;28;20018;-64
2023/10/20 02:43:56;;;;;;;11.00;6.00;;;16.00;85.10;;;;;;5034194;28;20034;-64
2023/10/20 02:46:24;;;;;;;10.63;6.07;;;16.10;85.00;;;;;;5035242;28;20419;-64
2023/10/20 02:48:51;;;;;;;10.45;6.65;;;16.00;85.20;;;;;;5035176;28;20124;-64
2023/10/20 02:51:19;;;;;;;12.30;6.05;;;16.00;85.40;;;;;;5035434;28;20506;-64
2023/10/20 02:53:47;;;;;;;9.73;6.20;;;16.00;85.30;;;;;;5035100;28;20113;-64
2023/10/20 02:56:17;;;;;;;9.50;6.10;;;16.00;85.20;;;;;;5035104;28;20041;-64
2023/10/20 02:58:47;;;;;;;9.93;5.63;;;16.10;85.10;;;;;;5035075;28;20036;-64
2023/10/20 03:01:15;;;;;;;9.45;5.63;;;16.10;85.00;;;;;;5035140;28;20109;-64
2023/10/20 03:03:44;;;;;;;9.70;5.43;;;16.10;84.90;;;;;;5033980;28;20030;-64
2023/10/20 03:06:10;;;;;;;9.23;5.32;;;16.10;84.80;;;;;;5034082;28;20112;-64
2023/10/20 03:08:37;;;;;;;10.90;6.85;;;16.10;84.80;;;;;;5034086;28;20071;-64
2023/10/20 03:11:07;;;;;;;9.25;5.78;;;16.10;84.90;;;;;;5035095;28;20025;-64
2023/10/20 03:13:33;;;;;;;9.77;6.18;;;16.10;84.80;;;;;;5035332;28;20464;-64
2023/10/20 03:15:59;;;;;;;9.77;5.82;;;16.10;85.20;;;;;;5035565;28;20021;-63
2023/10/20 03:18:28;;;;;;;9.80;5.93;;;16.10;85.00;;;;;;5035220;28;20354;-64
2023/10/20 03:21:01;;;;;;;10.93;6.47;;;16.10;84.90;;;;;;5033979;28;20366;-64
2023/10/20 03:23:30;;;;;;;9.25;5.72;;;16.10;84.90;;;;;;5034823;28;20335;-62
2023/10/20 03:25:57;;;;;;;10.55;6.40;;;16.10;84.90;;;;;;5034564;28;20029;-63
2023/10/20 03:28:23;;;;;;;11.13;6.32;;;16.20;84.90;;;;;;5034882;28;20031;-63
2023/10/20 03:30:50;;;;;;;10.45;6.32;;;16.20;84.70;;;;;;5034871;28;20075;-63
2023/10/20 03:33:16;;;;;;;12.05;6.18;;;16.10;84.70;;;;;;5034775;28;20036;-62
2023/10/20 03:36:15;;;;;;;10.85;6.47;;;16.20;84.70;;;;;;5053368;28;20389;-63
2023/10/20 03:38:41;;;;;;;10.85;6.10;;;16.10;84.80;;;;;;4977257;28;20117;-63
2023/10/20 03:41:11;;;;;;;13.25;7.63;;;16.10;85.00;;;;;;4978190;28;20037;-63
2023/10/20 03:46:06;;;;;;;10.63;6.32;;;16.10;84.90;;;;;;4978614;28;20034;-62
2023/10/20 03:48:34;;;;;;;10.15;6.32;;;16.10;84.80;;;;;;4977786;28;20068;-62
2023/10/20 03:51:04;;;;;;;11.20;7.00;;;16.10;84.70;;;;;;4961535;28;20140;-62
2023/10/20 03:53:39;;;;;;;12.00;6.95;;;16.20;84.80;;;;;;4977660;28;20078;-63
2023/10/20 03:56:09;;;;;;;11.05;6.72;;;16.10;85.00;;;;;;4978102;28;20436;-63
2023/10/20 03:58:36;;;;;;;13.20;7.78;;;16.10;85.40;;;;;;4961379;28;20043;-63
2023/10/20 04:01:02;;;;;;;11.00;6.90;;;16.10;85.10;;;;;;4977788;28;20054;-63
2023/10/20 04:03:31;;;;;;;10.63;6.85;;;16.20;85.50;;;;;;4961147;28;20026;-63
2023/10/20 04:05:57;;;;;;;11.10;6.68;;;16.20;85.60;;;;;;4978009;28;20054;-63
2023/10/20 04:08:24;;;;;;;10.10;6.13;;;16.20;85.40;;;;;;4977525;28;20035;-63
2023/10/20 04:10:57;;;;;;;10.63;6.68;;;16.10;85.30;;;;;;4961206;28;20125;-63
2023/10/20 04:13:23;;;;;;;12.10;7.30;;;16.20;85.40;;;;;;4977346;28;20027;-62
2023/10/20 04:15:52;;;;;;;11.65;6.95;;;16.10;85.60;;;;;;5045578;28;20051;-63
2023/10/20 04:18:19;;;;;;;10.48;6.75;;;16.20;85.70;;;;;;5040146;28;20078;-63
2023/10/20 04:20:48;;;;;;;11.35;6.25;;;16.20;85.70;;;;;;5057687;28;20025;-63
2023/10/20 04:23:16;;;;;;;9.90;5.65;;;16.10;85.50;;;;;;5039885;28;20052;-63
2023/10/20 04:25:59;;;;;;;8.95;5.40;;;16.10;85.30;;;;;;5040033;28;20339;-63
2023/10/20 04:28:44;;;;;;;9.05;5.65;;;16.20;85.20;;;;;;5058091;28;20020;-63
2023/10/20 04:58:56;;;;;;;9.13;5.00;;;16.30;84.90;;;;;;5057044;28;20454;-63
2023/10/20 05:04:24;;;;;;;7.00;4.68;;;16.30;84.80;;;;;;4995620;28;20509;-64
2023/10/20 05:06:58;;;;;;;8.07;5.15;;;16.30;84.70;;;;;;4979833;28;20422;-64
2023/10/20 05:09:26;;;;;;;8.32;5.15;;;16.30;84.80;;;;;;4995989;28;20182;-63
2023/10/20 05:11:55;;;;;;;9.18;5.03;;;16.30;84.80;;;;;;4979429;28;20023;-63
2023/10/20 05:14:21;;;;;;;7.43;4.45;;;16.30;84.80;;;;;;4979272;28;20091;-64
2023/10/20 05:16:47;;;;;;;7.00;4.45;;;16.30;84.80;;;;;;4979305;28;20125;-64
2023/10/20 05:19:15;;;;;;;7.57;5.07;;;16.30;84.80;;;;;;4995650;28;20109;-64
2023/10/20 05:21:41;;;;;;;7.50;4.93;;;16.30;84.90;;;;;;4996136;28;20460;-63
2023/10/20 05:24:08;;;;;;;8.07;5.40;;;16.30;84.90;;;;;;4979049;28;20026;-64
2023/10/20 05:26:34;;;;;;;8.90;5.13;;;16.30;84.80;;;;;;4979189;28;20069;-63
2023/10/20 05:29:01;;;;;;;9.90;5.57;;;16.20;84.80;;;;;;4995648;28;20089;-64
2023/10/20 05:31:31;;;;;;;7.68;5.03;;;16.30;84.90;;;;;;4979053;28;20506;-64
2023/10/20 05:33:57;;;;;;;8.10;5.20;;;16.30;84.80;;;;;;4995207;28;20058;-63
2023/10/20 05:36:23;;;;;;;8.15;5.30;;;16.20;84.90;;;;;;4979005;28;20034;-63
2023/10/20 05:38:48;;;;;;;9.75;5.07;;;16.30;84.90;;;;;;4979658;28;20039;-64
2023/10/20 05:41:17;;;;;;;8.43;5.53;;;16.30;84.90;;;;;;5016332;28;20041;-64
2023/10/20 05:43:45;;;;;;;7.30;5.00;;;16.30;84.90;;;;;;5036026;28;20033;-64
2023/10/20 05:46:17;;;;;;;11.88;5.80;;;16.30;84.80;;;;;;5036145;28;20040;-63
2023/10/20 05:48:44;;;;;;;10.38;5.78;;;16.30;84.70;;;;;;5035146;28;20032;-64
2023/10/20 05:51:13;;;;;;;9.63;4.93;;;16.30;84.80;;;;;;5036332;28;20021;-64
2023/10/20 05:53:42;;;;;;;10.23;5.60;;;16.30;84.80;;;;;;5036425;28;20100;-63
2023/10/20 05:56:09;;;;;;;11.48;5.47;;;16.30;84.80;;;;;;5035787;28;20029;-64
2023/10/20 05:58:35;;;;;;;9.63;5.18;;;16.30;84.90;;;;;;5035857;28;20458;-64
2023/10/20 06:01:05;;;;;;;12.20;5.60;;;16.30;84.80;;;;;;5034072;28;20038;-64
2023/10/20 06:03:35;;;;;;;11.15;5.50;;;16.30;84.80;;;;;;5036179;28;20025;-64
2023/10/20 06:06:03;;;;;;;11.50;5.88;;;16.30;84.80;;;;;;5035868;28;20026;-64
2023/10/20 06:08:30;;;;;;;9.63;5.53;;;16.30;85.00;;;;;;5035780;28;20346;-64
2023/10/20 06:11:05;;;;;;;11.65;6.45;;;16.30;85.00;;;;;;5034769;28;20458;-64
2023/10/20 06:13:34;;;;;;;10.27;5.78;;;16.30;84.90;;;;;;5036097;28;20040;-64
2023/10/20 06:16:18;;;;;;;10.38;5.82;;;16.30;85.20;;;;;;5035894;28;20456;-64
2023/10/20 06:18:47;;;;;;;9.52;5.50;;;16.30;84.90;;;;;;5034635;28;20037;-65
2023/10/20 06:21:17;;;;;;;9.20;5.60;;;16.30;84.90;;;;;;5035561;28;20021;-65
2023/10/20 06:23:46;;;;;;;9.52;5.63;;;16.30;85.10;;;;;;5035273;28;20453;-65
2023/10/20 06:26:14;;;;;;;10.07;6.05;;;16.30;85.20;;;;;;5035976;28;20021;-65
2023/10/20 06:28:40;;;;;;;8.98;5.90;;;16.30;85.20;;;;;;5035442;28;20048;-65
2023/10/20 06:34:09;;;;;;;12.13;5.70;;;16.30;85.20;;;;;;5038506;28;20408;-66
2023/10/20 06:36:37;;;;;;;9.95;5.60;;;16.30;85.20;;;;;;5055778;28;20021;-65
2023/10/20 06:39:11;;;;;;;8.65;5.57;;;16.40;85.10;;;;;;5055232;28;20025;-65
2023/10/20 06:41:39;;;;;;;10.13;5.47;;;16.40;85.10;;;;;;5056032;28;20389;-65
2023/10/20 06:44:05;;;;;;;11.15;5.43;;;16.40;85.00;;;;;;5055290;28;20053;-65
2023/10/20 06:46:32;;;;;;;10.60;5.85;;;16.40;85.10;;;;;;5037549;28;20032;-64
2023/10/20 06:48:58;;;;;;;11.05;5.63;;;16.40;85.00;;;;;;5055628;28;20100;-64
2023/10/20 06:51:26;;;;;;;10.40;6.07;;;16.40;84.70;;;;;;5055381;28;20031;-64
2023/10/20 06:53:54;;;;;;;8.30;5.65;;;16.40;84.90;;;;;;5054976;28;20040;-64
2023/10/20 06:56:22;;;;;;;8.85;5.30;;;16.50;85.00;;;;;;5055653;28;20047;-64
2023/10/20 06:58:53;;;;;;;11.05;6.47;;;16.40;85.10;;;;;;5055001;28;20020;-64
2023/10/20 07:03:50;;;;;;;10.38;5.43;;;16.50;85.50;;;;;;5055693;28;20139;-64
2023/10/20 07:06:16;;;;;;;9.48;5.50;;;16.50;85.50;;;;;;5055015;28;20459;-64
2023/10/20 07:08:45;;;;;;;11.15;5.45;;;16.50;85.30;;;;;;5055282;28;20057;-64
2023/10/20 07:11:13;;;;;;;7.60;4.80;;;16.50;85.10;;;;;;5055512;28;20079;-64
2023/10/20 07:13:39;;;;;;;8.93;5.25;;;16.50;85.10;;;;;;5058035;28;20025;-64
2023/10/20 07:16:05;;;;;;;7.72;4.53;;;16.60;85.00;;;;;;5041303;28;20361;-64
2023/10/20 07:18:33;;;;;;;8.88;5.20;;;16.60;85.00;;;;;;5059159;28;20029;-64
2023/10/20 07:20:59;;;;;;;9.30;4.93;;;16.60;84.80;;;;;;5059377;28;20025;-64
2023/10/20 07:23:28;;;;;;;9.27;5.38;;;16.70;84.90;;;;;;5058668;28;20361;-64
2023/10/20 07:25:56;;;;;;;8.40;4.85;;;16.60;85.00;;;;;;5059231;28;20044;-64
2023/10/20 07:28:24;;;;;;;9.13;5.25;;;16.60;84.90;;;;;;5041105;28;20362;-64
2023/10/20 07:30:50;;;;;;;9.05;5.43;;;16.70;84.80;;;;;;5058657;28;20171;-64
2023/10/20 07:33:19;;;;;;;8.38;5.10;;;16.70;84.80;;;;;;5058790;28;20025;-64
2023/10/20 07:35:48;;;;;;;7.85;4.60;;;16.70;84.80;;;;;;5058376;28;20045;-64
2023/10/20 07:38:15;;;;;;;8.50;5.28;;;16.70;84.80;;;;;;5059016;28;20029;-64
2023/10/20 07:40:43;;;;;;;12.18;5.32;;;16.70;84.80;;;;;;5058479;28;20021;-64
2023/10/20 07:43:11;;;;;;;7.70;4.97;;;16.70;84.80;;;;;;5058246;28;20447;-64
2023/10/20 07:45:41;;;;;;;9.23;4.90;;;16.70;84.80;;;;;;5041143;28;20013;-64
2023/10/20 07:48:08;;;;;;;9.57;4.68;;;16.80;84.70;;;;;;5041184;28;20091;-64
2023/10/20 07:50:44;;;;;;;10.32;6.57;;;16.80;84.70;;;;;;5057326;28;20025;-64
2023/10/20 07:53:10;;;;;;;10.40;6.18;;;16.80;84.60;;;;;;5058194;28;20420;-64
2023/10/20 07:55:36;;;;;;;12.82;7.07;;;16.80;84.90;;;;;;5058188;28;20013;-64
2023/10/20 07:58:03;;;;;;;14.07;7.47;;;16.80;84.80;;;;;;5058174;28;20021;-64
2023/10/20 08:00:29;;;;;;;11.88;7.10;;;16.80;85.00;;;;;;5058656;28;20044;-64
2023/10/20 08:02:55;;;;;;;11.73;6.38;;;16.90;85.30;;;;;;5058061;28;20017;-64
2023/10/20 08:05:44;;;;;;;10.73;5.25;;;16.80;85.00;;;;;;5057882;28;20079;-64
2023/10/20 08:08:10;;;;;;;10.82;6.53;;;16.80;84.80;;;;;;5057975;28;20029;-64
2023/10/20 08:10:38;;;;;;;12.13;6.05;;;16.90;85.00;;;;;;5023844;28;20051;-64
2023/10/20 08:13:07;;;;;;;13.23;6.75;;;16.90;84.90;;;;;;5057862;28;20112;-64
2023/10/20 08:15:37;;;;;;;10.00;6.35;;;16.90;85.00;;;;;;5058338;28;20035;-64
2023/10/20 08:18:03;;;;;;;10.00;5.90;;;16.90;84.90;;;;;;5058066;28;20029;-64
2023/10/20 08:20:29;;;;;;;9.57;5.72;;;16.90;85.00;;;;;;5040334;28;20378;-64
2023/10/20 08:22:55;;;;;;;8.57;5.30;;;16.90;84.90;;;;;;5023951;28;20347;-64
2023/10/20 08:25:21;;;;;;;10.05;5.70;;;16.90;84.90;;;;;;5056543;28;20453;-64
2023/10/20 08:27:48;;;;;;;9.07;5.80;;;16.90;84.80;;;;;;5057388;28;20029;-64
2023/10/20 08:30:15;;;;;;;8.82;5.78;;;17.00;84.80;;;;;;5057526;28;20061;-65
2023/10/20 08:32:42;;;;;;;10.15;6.30;;;17.00;84.80;;;;;;5057499;28;20373;-65
2023/10/20 08:35:08;;;;;;;10.18;6.35;;;17.00;84.80;;;;;;5057180;28;20053;-64
2023/10/20 08:37:36;;;;;;;10.38;6.47;;;17.10;84.90;;;;;;5057486;28;20048;-64
2023/10/20 08:40:10;;;;;;;11.70;6.43;;;17.00;84.80;;;;;;5056991;28;20017;-64
2023/10/20 08:42:39;;;;;;;10.52;6.05;;;17.10;84.90;;;;;;5057299;28;20052;-64
2023/10/20 08:45:12;;;;;;;11.35;7.20;;;17.10;84.80;;;;;;5057104;28;20021;-64
2023/10/20 08:47:42;;;;;;;12.57;7.00;;;17.10;84.80;;;;;;5057876;28;20021;-64
2023/10/20 08:50:13;;;;;;;12.10;6.50;;;17.10;84.80;;;;;;5057162;28;20465;-64
2023/10/20 08:52:40;;;;;;;9.32;6.25;;;17.20;84.90;;;;;;5057663;28;20413;-64
2023/10/20 08:55:08;;;;;;;14.02;6.65;;;17.20;84.80;;;;;;5057576;28;20054;-64
2023/10/20 08:57:37;;;;;;;11.95;7.35;;;17.20;84.90;;;;;;5039486;28;20036;-64
2023/10/20 09:00:07;;;;;;;15.23;7.72;;;17.30;84.90;;;;;;5057544;28;20094;-64
2023/10/20 09:02:39;;;;;;;14.23;7.50;;;17.30;84.90;;;;;;5057471;28;20381;-64
2023/10/20 09:05:09;;;;;;;14.50;7.32;;;17.40;84.80;;;;;;5039109;28;20025;-64
2023/10/20 09:07:35;;;;;;;11.07;6.93;;;17.40;84.80;;;;;;5056864;28;20038;-64
2023/10/20 09:10:02;;;;;;;14.55;8.27;;;17.40;84.80;;;;;;5056835;28;20419;-63
2023/10/20 09:12:32;;;;;;;13.02;7.45;;;17.40;84.80;;;;;;5056781;28;20369;-64
2023/10/20 09:14:58;;;;;;;10.77;6.88;;;17.40;84.80;;;;;;5056888;28;20075;-64
2023/10/20 09:17:25;;;;;;;16.30;8.20;;;17.50;84.80;;;;;;5056701;28;20028;-65
2023/10/20 09:22:36;;;;;;;15.23;9.05;;;17.50;84.80;;;;;;5057383;28;20035;-64
2023/10/20 09:25:10;;;;;;;10.32;6.53;;;17.60;84.80;;;;;;5056299;28;20037;-64
2023/10/20 09:27:38;;;;;;;11.52;7.88;;;17.60;84.70;;;;;;5056411;28;20029;-64
2023/10/20 09:30:08;;;;;;;11.70;7.32;;;17.60;84.80;;;;;;5056446;28;20112;-64
2023/10/20 09:32:39;;;;;;;12.75;7.70;;;17.60;84.80;;;;;;5056656;28;20027;-64
2023/10/20 09:35:06;;;;;;;13.50;7.55;;;17.70;84.80;;;;;;5056059;28;20067;-64
2023/10/20 09:37:36;;;;;;;14.68;8.30;;;17.70;84.80;;;;;;5056326;28;20048;-64
2023/10/20 09:40:06;;;;;;;16.30;8.73;;;17.70;84.70;;;;;;5056237;28;20109;-64
2023/10/20 09:42:57;;;;;;;12.35;7.05;;;17.70;84.80;;;;;;5038638;28;20021;-64
2023/10/20 09:45:36;;;;;;;13.75;7.93;;;17.80;84.70;;;;;;5038487;28;20103;-64
2023/10/20 09:48:11;;;;;;;13.13;9.02;;;17.80;84.90;;;;;;5056648;28;20017;-64
2023/10/20 09:50:40;;;;;;;16.08;8.98;;;17.80;84.80;;;;;;5056358;28;20452;-64
2023/10/20 09:53:06;;;;;;;15.45;8.20;;;17.80;85.00;;;;;;5056206;28;20021;-64
2023/10/20 09:55:35;;;;;;;14.80;9.00;;;17.90;84.90;;;;;;5056448;28;20037;-64
2023/10/20 09:58:01;;;;;;;13.80;8.40;;;17.90;85.10;;;;;;5038306;28;20383;-64
2023/10/20 10:00:31;;;;;;;15.27;9.02;;;17.90;85.00;;;;;;5055849;28;20048;-64
2023/10/20 10:03:04;;;;;;;14.23;8.55;;;17.90;85.20;;;;;;5056341;28;20331;-64
2023/10/20 10:05:36;;;;;;;17.13;8.27;;;17.90;85.10;;;;;;5055689;28;20052;-64
2023/10/20 10:08:10;;;;;;;14.93;8.60;;;18.00;84.80;;;;;;5055985;28;20013;-64
2023/10/20 10:10:36;;;;;;;19.05;8.75;;;18.00;84.80;;;;;;5055904;28;20033;-64
2023/10/20 10:13:06;;;;;;;14.20;8.35;;;18.10;85.00;;;;;;5055581;28;20067;-64
2023/10/20 10:15:46;;;;;;;17.73;8.82;;;18.00;84.80;;;;;;5055879;28;20043;-64
2023/10/20 10:18:15;;;;;;;21.50;9.25;;;18.10;84.70;;;;;;5055817;28;20331;-64
2023/10/20 10:20:43;;;;;;;21.20;9.95;;;18.10;84.70;;;;;;5055480;28;20087;-64
2023/10/20 10:25:39;;;;;;;16.85;7.97;;;18.10;84.60;;;;;;5055863;28;20028;-64
2023/10/20 10:28:16;;;;;;;17.20;8.07;;;18.10;84.70;;;;;;5055300;28;20111;-64
2023/10/20 10:30:45;;;;;;;12.48;8.10;;;18.10;84.50;;;;;;5055658;28;20013;-64
2023/10/20 10:33:12;;;;;;;17.52;8.65;;;18.10;84.70;;;;;;5055273;28;20414;-64
2023/10/20 10:35:39;;;;;;;11.38;6.78;;;18.00;84.60;;;;;;5055105;28;20068;-64
2023/10/20 10:38:28;;;;;;;15.02;8.07;;;18.00;84.60;;;;;;5055795;28;20040;-64
2023/10/20 10:40:55;;;;;;;16.35;8.25;;;18.00;84.60;;;;;;5055585;28;20021;-64
2023/10/20 10:43:23;;;;;;;16.10;9.10;;;18.00;84.70;;;;;;5055571;28;20040;-64
2023/10/20 10:45:53;;;;;;;13.30;7.90;;;18.00;84.70;;;;;;5037569;28;20353;-64
2023/10/20 10:48:24;;;;;;;13.27;7.95;;;18.00;84.60;;;;;;5055191;28;20021;-64
2023/10/20 10:50:51;;;;;;;15.38;7.78;;;18.00;84.50;;;;;;5055698;28;20028;-64
2023/10/20 10:53:21;;;;;;;13.63;6.95;;;18.00;84.60;;;;;;5055043;28;20380;-64
2023/10/20 10:55:49;;;;;;;16.70;7.60;;;18.00;84.50;;;;;;5055118;28;20025;-64
2023/10/20 10:58:15;;;;;;;15.60;7.88;;;18.00;84.60;;;;;;5055010;28;20032;-64
2023/10/20 11:00:47;;;;;;;17.10;7.88;;;18.10;84.60;;;;;;5055297;28;20096;-65
2023/10/20 11:03:19;;;;;;;12.95;6.70;;;18.10;84.50;;;;;;5055497;28;20021;-64
2023/10/20 11:05:45;;;;;;;14.27;7.70;;;18.10;84.50;;;;;;5055616;28;20457;-64
2023/10/20 11:08:19;;;;;;;12.38;7.35;;;18.10;84.50;;;;;;5037447;28;20024;-64
2023/10/20 11:10:45;;;;;;;14.05;6.97;;;18.10;84.30;;;;;;5053951;28;20033;-63
2023/10/20 11:13:16;;;;;;;14.13;7.30;;;18.20;84.40;;;;;;5055118;28;20021;-64
2023/10/20 11:15:42;;;;;;;13.95;7.60;;;18.20;84.40;;;;;;5054886;28;20029;-63
2023/10/20 11:18:11;;;;;;;16.67;7.13;;;18.20;84.50;;;;;;5037354;28;20143;-64
2023/10/20 11:20:40;;;;;;;16.85;8.00;;;18.20;84.50;;;;;;5055106;28;20036;-64
2023/10/20 11:23:07;;;;;;;16.38;7.68;;;18.20;84.60;;;;;;5055079;28;20028;-64
2023/10/20 11:25:34;;;;;;;15.40;7.88;;;18.20;84.60;;;;;;5037559;28;20025;-64
2023/10/20 11:28:02;;;;;;;18.95;9.48;;;18.20;84.60;;;;;;5054764;28;20424;-64
2023/10/20 11:30:42;;;;;;;16.40;7.40;;;18.20;84.60;;;;;;5038118;28;20457;-64
2023/10/20 11:33:11;;;;;;;16.90;7.57;;;18.20;84.60;;;;;;5054956;28;20067;-64
2023/10/20 11:35:37;;;;;;;18.10;7.70;;;18.20;84.50;;;;;;5054514;28;20102;-64
2023/10/20 11:38:05;;;;;;;17.88;8.73;;;18.20;84.60;;;;;;5054697;28;20063;-64
2023/10/20 11:40:31;;;;;;;22.48;8.65;;;18.30;84.80;;;;;;5054924;28;20028;-64
2023/10/20 11:43:00;;;;;;;15.10;8.98;;;18.30;84.90;;;;;;5054875;28;20021;-64
2023/10/20 11:45:25;;;;;;;21.90;9.38;;;18.30;84.80;;;;;;5054481;28;20040;-64
2023/10/20 11:47:52;;;;;;;21.13;8.95;;;18.40;85.10;;;;;;5036979;28;20013;-64
2023/10/20 11:50:23;;;;;;;17.10;9.20;;;18.40;85.10;;;;;;5054828;28;20067;-64
2023/10/20 11:52:49;;;;;;;25.50;9.88;;;18.40;85.00;;;;;;5055080;28;20448;-64
2023/10/20 11:55:16;;;;;;;22.55;9.10;;;18.40;85.00;;;;;;5036913;28;20361;-62
2023/10/20 11:57:44;;;;;;;15.07;8.35;;;18.40;85.00;;;;;;5054804;28;20033;-64
2023/10/20 12:00:13;;;;;;;16.83;8.25;;;18.50;84.80;;;;;;5057113;28;20043;-65
2023/10/20 12:02:43;;;;;;;16.08;8.57;;;18.50;84.90;;;;;;5058095;28;20033;-64
2023/10/20 12:05:10;;;;;;;18.17;9.07;;;18.50;84.90;;;;;;5057966;28;20044;-64
2023/10/20 12:07:37;;;;;;;21.83;9.00;;;18.50;84.90;;;;;;5057989;28;20025;-65
2023/10/20 12:10:06;;;;;;;21.05;9.13;;;18.60;84.90;;;;;;5058197;28;20433;-64
2023/10/20 12:12:33;;;;;;;20.00;8.75;;;18.60;84.80;;;;;;5057848;28;20358;-64
2023/10/20 12:15:00;;;;;;;19.45;9.23;;;18.60;84.80;;;;;;5057791;28;20032;-64
2023/10/20 12:17:26;;;;;;;19.52;9.00;;;18.60;84.80;;;;;;5058074;28;20462;-65
2023/10/20 12:19:51;;;;;;;21.80;10.20;;;18.60;84.80;;;;;;5058270;28;20063;-65
2023/10/20 12:22:18;;;;;;;15.77;9.05;;;18.60;84.90;;;;;;5057983;28;20032;-65
2023/10/20 12:24:44;;;;;;;21.33;9.45;;;18.70;84.80;;;;;;5057525;28;20021;-64
2023/10/20 12:27:10;;;;;;;19.85;8.30;;;18.70;84.70;;;;;;5057602;28;20025;-65
2023/10/20 12:29:36;;;;;;;18.27;8.75;;;18.80;84.50;;;;;;5023810;28;20037;-64
2023/10/20 12:32:03;;;;;;;19.67;8.95;;;18.80;84.70;;;;;;5057513;28;20022;-64
2023/10/20 12:34:36;;;;;;;18.83;8.73;;;18.80;84.70;;;;;;5056550;28;20056;-64
2023/10/20 12:37:03;;;;;;;17.90;7.15;;;18.90;84.60;;;;;;5040765;28;20040;-64
2023/10/20 12:39:31;;;;;;;16.50;7.82;;;18.90;84.30;;;;;;5057933;28;20037;-64
2023/10/20 12:42:02;;;;;;;17.77;7.85;;;19.00;84.10;;;;;;5057341;28;20062;-64
2023/10/20 12:44:33;;;;;;;19.02;7.97;;;18.90;83.80;;;;;;5057736;28;20036;-65
2023/10/20 12:46:59;;;;;;;22.63;7.65;;;19.00;83.80;;;;;;5039709;28;20361;-65
2023/10/20 12:49:25;;;;;;;14.10;7.20;;;19.00;83.60;;;;;;5039635;28;20468;-65
2023/10/20 12:51:51;;;;;;;18.67;8.02;;;19.10;83.60;;;;;;5057175;28;20049;-65
2023/10/20 12:54:17;;;;;;;18.77;7.10;;;19.10;83.50;;;;;;5057561;28;20341;-65
2023/10/20 12:56:43;;;;;;;16.92;6.90;;;19.10;83.30;;;;;;5057605;28;20024;-64
2023/10/20 12:59:09;;;;;;;14.18;7.28;;;19.10;83.20;;;;;;5057155;28;20388;-64
2023/10/20 13:01:35;;;;;;;20.17;7.65;;;19.10;83.00;;;;;;5039415;28;20037;-65
2023/10/20 13:04:01;;;;;;;16.08;7.03;;;19.10;83.00;;;;;;5056747;28;20120;-65
2023/10/20 13:06:27;;;;;;;15.98;6.57;;;19.20;82.80;;;;;;5039347;28;20032;-65
2023/10/20 13:08:53;;;;;;;15.10;6.22;;;19.20;82.80;;;;;;5056848;28;20499;-64
2023/10/20 13:11:19;;;;;;;15.45;6.18;;;19.20;82.70;;;;;;5056346;28;20029;-65
2023/10/20 13:13:45;;;;;;;16.70;6.85;;;19.20;82.70;;;;;;5039152;28;20059;-66
2023/10/20 13:16:11;;;;;;;15.95;6.07;;;19.30;82.70;;;;;;5056683;28;20025;-67
2023/10/20 13:18:37;;;;;;;15.13;5.88;;;19.30;82.70;;;;;;5056484;28;20028;-67
2023/10/20 13:21:05;;;;;;;14.55;6.07;;;19.30;82.50;;;;;;5056592;28;20028;-67
2023/10/20 13:23:32;;;;;;;15.68;6.60;;;19.20;82.40;;;;;;5056410;28;20353;-67
2023/10/20 13:26:04;;;;;;;15.82;6.10;;;19.20;82.40;;;;;;5056827;28;20031;-65
2023/10/20 13:28:34;;;;;;;14.38;5.88;;;19.30;82.20;;;;;;5055401;28;20021;-65
2023/10/20 13:31:06;;;;;;;12.38;6.30;;;19.30;82.30;;;;;;5037526;28;20447;-65